Time;durP1;ratioP1;P1;durP2;ratioP2;P2;SDS_P1;SDS_P2;PMS_P1;PMS_P2;Temp;Humidity;BMP_temperature;BMP_pressure;BME280_temperature;BME280_humidity;BME280_pressure;Samples;Min_cycle;Max_cycle;Signal;HPM_P1;HPM_P2
2021/03/14 00:00:52;;;;;;;12.23;3.28;;;12.20;62.80;;;;;;4975841;28;20548;-72
2021/03/14 00:03:20;;;;;;;15.05;3.45;;;12.20;62.80;;;;;;4975427;28;20103;-73
2021/03/14 00:05:48;;;;;;;16.00;3.30;;;12.20;63.00;;;;;;4975483;28;20035;-72
2021/03/14 00:08:15;;;;;;;15.52;2.88;;;12.10;62.80;;;;;;4974906;28;20033;-72
2021/03/14 00:10:46;;;;;;;12.80;2.95;;;12.10;62.40;;;;;;4975654;28;20098;-72
2021/03/14 00:13:13;;;;;;;11.95;2.65;;;12.10;62.70;;;;;;4975618;28;20073;-72
2021/03/14 00:15:39;;;;;;;15.10;3.42;;;12.10;62.50;;;;;;4975527;28;20027;-72
2021/03/14 00:18:05;;;;;;;15.35;2.72;;;12.10;62.30;;;;;;4974956;28;20030;-73
2021/03/14 00:20:31;;;;;;;16.65;3.03;;;12.10;62.40;;;;;;4975088;28;20557;-73
2021/03/14 00:22:57;;;;;;;17.25;3.00;;;12.10;61.90;;;;;;4975038;28;20058;-73
2021/03/14 00:25:23;;;;;;;11.20;3.45;;;12.10;62.50;;;;;;4975275;28;20031;-72
2021/03/14 00:27:48;;;;;;;11.20;2.50;;;12.10;62.70;;;;;;4975137;28;20022;-73
2021/03/14 00:30:15;;;;;;;21.55;3.05;;;12.00;63.10;;;;;;4975158;28;20037;-72
2021/03/14 00:32:42;;;;;;;14.45;3.15;;;12.10;63.00;;;;;;4975336;28;20061;-73
2021/03/14 00:35:10;;;;;;;16.00;3.05;;;12.10;63.00;;;;;;4975118;28;20030;-73
2021/03/14 00:37:36;;;;;;;11.35;2.88;;;12.00;62.70;;;;;;4974926;28;20058;-73
2021/03/14 00:40:04;;;;;;;12.73;3.55;;;12.00;62.90;;;;;;4975054;28;20466;-73
2021/03/14 00:42:30;;;;;;;15.60;3.75;;;12.00;62.60;;;;;;4975132;28;20086;-73
2021/03/14 00:44:55;;;;;;;14.52;2.90;;;12.00;62.90;;;;;;4974989;28;20035;-73
2021/03/14 00:47:21;;;;;;;15.07;3.20;;;12.00;62.90;;;;;;4989629;28;20407;-73
2021/03/14 00:49:46;;;;;;;17.27;3.20;;;12.00;62.80;;;;;;4974567;28;20025;-73
2021/03/14 00:52:12;;;;;;;14.18;3.33;;;12.00;62.70;;;;;;4974570;28;20034;-73
2021/03/14 00:54:39;;;;;;;17.83;3.20;;;12.00;63.10;;;;;;4974391;28;20027;-73
2021/03/14 00:57:05;;;;;;;16.30;3.30;;;12.00;63.60;;;;;;4974766;28;20423;-73
2021/03/14 00:59:31;;;;;;;19.23;3.10;;;11.90;63.90;;;;;;4974409;28;20365;-73
2021/03/14 01:01:56;;;;;;;17.98;2.88;;;11.90;64.40;;;;;;4974601;28;20089;-72
2021/03/14 01:04:22;;;;;;;13.52;2.70;;;12.00;64.00;;;;;;4974520;28;20380;-73
2021/03/14 01:06:48;;;;;;;19.13;3.38;;;11.90;63.80;;;;;;4974724;28;20022;-73
2021/03/14 01:09:14;;;;;;;18.63;3.42;;;11.90;63.70;;;;;;4974149;28;20031;-73
2021/03/14 01:11:39;;;;;;;15.05;2.58;;;11.90;64.00;;;;;;4974452;28;20435;-73
2021/03/14 01:14:05;;;;;;;20.85;3.08;;;11.90;64.20;;;;;;4974246;28;20023;-72
2021/03/14 01:16:31;;;;;;;16.10;3.17;;;11.90;64.40;;;;;;4974354;28;20119;-73
2021/03/14 01:18:57;;;;;;;12.23;2.72;;;11.90;64.60;;;;;;4974109;28;20050;-73
2021/03/14 01:21:22;;;;;;;18.45;3.50;;;11.90;64.80;;;;;;4974006;28;20398;-72
2021/03/14 01:23:48;;;;;;;15.15;3.22;;;11.90;64.60;;;;;;4974184;28;20023;-73
2021/03/14 01:26:14;;;;;;;21.02;3.42;;;11.90;64.40;;;;;;4974302;28;20098;-73
2021/03/14 01:28:39;;;;;;;13.65;3.00;;;11.90;64.40;;;;;;4974181;28;20384;-73
2021/03/14 01:31:05;;;;;;;18.73;3.13;;;11.90;64.40;;;;;;4974304;28;20059;-73
2021/03/14 01:33:31;;;;;;;21.90;3.13;;;11.90;64.70;;;;;;4974219;28;20038;-73
2021/03/14 01:35:57;;;;;;;17.20;2.90;;;11.90;64.90;;;;;;4974430;28;20404;-73
2021/03/14 01:38:22;;;;;;;18.98;3.50;;;11.80;64.90;;;;;;4972855;28;20495;-73
2021/03/14 01:40:48;;;;;;;20.88;3.38;;;11.80;65.10;;;;;;4974262;28;20038;-73
2021/03/14 01:43:14;;;;;;;16.55;3.42;;;11.80;65.30;;;;;;4974087;28;20023;-73
2021/03/14 01:45:40;;;;;;;12.93;2.60;;;11.80;65.20;;;;;;4973905;28;20098;-73
2021/03/14 01:48:07;;;;;;;17.27;3.15;;;11.80;65.00;;;;;;4974237;28;20106;-73
2021/03/14 01:50:34;;;;;;;18.70;4.07;;;11.90;65.00;;;;;;4974164;28;20434;-73
2021/03/14 01:52:59;;;;;;;14.60;2.80;;;11.80;65.10;;;;;;4974203;28;20098;-73
2021/03/14 01:55:25;;;;;;;16.05;3.22;;;11.80;65.50;;;;;;4973987;28;20154;-73
2021/03/14 01:57:52;;;;;;;15.80;3.30;;;11.80;65.10;;;;;;4972910;28;20031;-73
2021/03/14 02:00:23;;;;;;;20.40;3.60;;;11.90;65.30;;;;;;4971094;28;20045;-73
2021/03/14 02:02:49;;;;;;;20.05;3.42;;;11.90;65.10;;;;;;4971194;28;20077;-73
2021/03/14 02:05:18;;;;;;;23.58;3.50;;;11.80;65.00;;;;;;4972343;28;20097;-73
2021/03/14 02:07:52;;;;;;;20.58;4.25;;;11.90;65.40;;;;;;4973736;28;20050;-72
2021/03/14 02:10:38;;;;;;;25.27;3.83;;;11.90;65.70;;;;;;4972488;28;20471;-73
2021/03/14 02:13:03;;;;;;;22.60;4.10;;;11.90;65.80;;;;;;4973792;28;20529;-73
2021/03/14 02:15:32;;;;;;;17.10;3.38;;;11.80;65.60;;;;;;4973958;28;20031;-72
2021/03/14 02:17:59;;;;;;;21.33;3.78;;;11.80;65.60;;;;;;4973803;28;20023;-73
2021/03/14 02:20:28;;;;;;;19.08;3.72;;;11.80;66.00;;;;;;4973606;28;20080;-73
2021/03/14 02:23:25;;;;;;;17.13;3.33;;;11.80;66.50;;;;;;4973798;28;20019;-73
2021/03/14 02:25:58;;;;;;;15.93;3.40;;;11.80;66.90;;;;;;4973914;28;20049;-73
2021/03/14 02:28:24;;;;;;;13.23;3.05;;;11.80;66.70;;;;;;4973667;28;20030;-73
2021/03/14 02:30:50;;;;;;;16.58;3.40;;;11.70;66.70;;;;;;4974462;28;20031;-73
2021/03/14 02:33:20;;;;;;;21.73;3.10;;;11.70;66.90;;;;;;4977327;28;20023;-73
2021/03/14 02:35:48;;;;;;;20.15;3.85;;;11.70;67.10;;;;;;4976819;28;20081;-73
2021/03/14 02:38:15;;;;;;;17.90;3.55;;;11.70;67.20;;;;;;4976912;28;20507;-73
2021/03/14 02:40:42;;;;;;;16.65;3.50;;;11.70;67.00;;;;;;4976915;28;20038;-73
2021/03/14 02:43:09;;;;;;;19.85;3.92;;;11.70;66.80;;;;;;4976520;28;20027;-73
2021/03/14 02:45:35;;;;;;;18.73;4.65;;;11.70;66.90;;;;;;4976898;28;20027;-73
2021/03/14 02:48:02;;;;;;;20.15;4.55;;;11.70;67.60;;;;;;4976936;28;20077;-73
2021/03/14 02:50:28;;;;;;;21.73;4.80;;;11.60;68.00;;;;;;4976584;28;20019;-73
2021/03/14 02:52:54;;;;;;;23.10;4.50;;;11.60;68.10;;;;;;4976982;28;20027;-73
2021/03/14 02:55:25;;;;;;;18.92;4.25;;;11.60;68.20;;;;;;4977002;28;20030;-73
2021/03/14 02:57:51;;;;;;;19.75;4.93;;;11.60;68.10;;;;;;4976215;28;20105;-73
2021/03/14 03:00:22;;;;;;;19.63;4.80;;;11.60;68.20;;;;;;4976615;28;20085;-72
2021/03/14 03:02:50;;;;;;;21.95;5.20;;;11.60;68.60;;;;;;4975497;28;20377;-73
2021/03/14 03:05:19;;;;;;;21.17;4.78;;;11.60;68.70;;;;;;4976666;28;20026;-73
2021/03/14 03:07:58;;;;;;;26.92;5.05;;;11.60;69.00;;;;;;4976541;28;20031;-73
2021/03/14 03:10:31;;;;;;;21.90;4.90;;;11.70;69.00;;;;;;4976753;28;20438;-72
2021/03/14 03:12:59;;;;;;;27.08;5.43;;;11.70;69.00;;;;;;4976633;28;20031;-73
2021/03/14 03:15:26;;;;;;;20.38;5.55;;;11.70;69.00;;;;;;4976509;28;20415;-73
2021/03/14 03:17:52;;;;;;;24.63;5.00;;;11.60;69.00;;;;;;4976643;28;20031;-73
2021/03/14 03:20:19;;;;;;;20.42;5.85;;;11.70;68.90;;;;;;4975359;28;20396;-72
2021/03/14 03:22:47;;;;;;;13.48;3.90;;;11.60;69.00;;;;;;4976467;28;20035;-73
2021/03/14 03:25:13;;;;;;;16.63;4.10;;;11.60;68.90;;;;;;4976292;28;20031;-72
2021/03/14 03:27:39;;;;;;;22.00;4.63;;;11.60;68.70;;;;;;4976318;28;20030;-72
2021/03/14 03:30:08;;;;;;;24.23;4.75;;;11.60;68.90;;;;;;4976378;28;20034;-73
2021/03/14 03:32:33;;;;;;;26.50;5.20;;;11.60;69.00;;;;;;4976556;28;20037;-72
2021/03/14 03:34:59;;;;;;;21.88;4.65;;;11.60;69.00;;;;;;4976262;28;20027;-73
2021/03/14 03:37:25;;;;;;;21.55;5.18;;;11.60;69.10;;;;;;4976134;28;20065;-73
2021/03/14 03:39:51;;;;;;;18.13;4.88;;;11.60;69.10;;;;;;4974512;28;20050;-73
2021/03/14 03:42:23;;;;;;;19.98;4.88;;;11.60;69.30;;;;;;4975185;28;20023;-73
2021/03/14 03:44:50;;;;;;;22.45;5.30;;;11.60;69.20;;;;;;4975940;28;20037;-72
2021/03/14 03:47:17;;;;;;;19.63;4.72;;;11.50;69.20;;;;;;4975944;28;20443;-73
2021/03/14 03:49:48;;;;;;;18.13;4.68;;;11.50;69.20;;;;;;4974442;28;20023;-73
2021/03/14 03:52:16;;;;;;;21.58;4.95;;;11.60;69.20;;;;;;4975764;28;20507;-72
2021/03/14 03:54:44;;;;;;;22.65;4.50;;;11.60;69.10;;;;;;4975833;28;20484;-73
2021/03/14 03:57:11;;;;;;;20.83;4.85;;;11.60;69.00;;;;;;4975882;28;20047;-73
2021/03/14 03:59:37;;;;;;;20.25;5.43;;;11.60;68.90;;;;;;4975481;28;20158;-73
2021/03/14 04:02:04;;;;;;;19.85;4.80;;;11.60;68.70;;;;;;4975782;28;20027;-73
2021/03/14 04:04:33;;;;;;;22.52;5.13;;;11.60;68.70;;;;;;4975816;28;20495;-73
2021/03/14 04:07:01;;;;;;;20.55;4.10;;;11.60;68.70;;;;;;4975709;28;20081;-73
2021/03/14 04:09:27;;;;;;;17.83;4.63;;;11.60;68.60;;;;;;4975624;28;20026;-72
2021/03/14 04:11:54;;;;;;;25.85;7.00;;;11.50;68.60;;;;;;4975277;28;20047;-72
2021/03/14 04:14:21;;;;;;;19.75;4.22;;;11.60;68.70;;;;;;4975399;28;20106;-73
2021/03/14 04:16:47;;;;;;;16.52;3.80;;;11.50;68.80;;;;;;4975119;28;20034;-72
2021/03/14 04:19:16;;;;;;;18.90;4.60;;;11.50;68.90;;;;;;4975273;28;20081;-73
2021/03/14 04:21:42;;;;;;;15.25;4.30;;;11.50;69.00;;;;;;4975313;28;20089;-73
2021/03/14 04:24:11;;;;;;;14.85;4.00;;;11.50;68.50;;;;;;4975129;28;20502;-73
2021/03/14 04:26:43;;;;;;;18.70;4.22;;;11.50;68.20;;;;;;4975251;28;20058;-73
2021/03/14 04:29:10;;;;;;;24.38;4.53;;;11.50;68.00;;;;;;4975343;28;20416;-73
2021/03/14 04:31:47;;;;;;;20.25;3.75;;;11.50;68.40;;;;;;4975100;28;20510;-73
2021/03/14 04:34:19;;;;;;;17.20;3.88;;;11.50;68.40;;;;;;4975173;28;20027;-72
2021/03/14 04:36:46;;;;;;;18.75;4.13;;;11.50;68.20;;;;;;4975035;28;20085;-72
2021/03/14 04:39:13;;;;;;;22.67;4.30;;;11.50;68.20;;;;;;4974661;28;20027;-72
2021/03/14 04:41:41;;;;;;;16.88;3.33;;;11.50;68.40;;;;;;4974689;28;20061;-72
2021/03/14 04:44:09;;;;;;;20.45;3.40;;;11.50;68.00;;;;;;4975050;28;20089;-72
2021/03/14 04:46:36;;;;;;;16.30;3.95;;;11.50;67.90;;;;;;4974764;28;20126;-72
2021/03/14 04:49:02;;;;;;;14.98;3.28;;;11.50;67.80;;;;;;4974512;28;20023;-72
2021/03/14 04:51:30;;;;;;;20.90;4.32;;;11.50;67.70;;;;;;4974929;28;20526;-73
2021/03/14 04:53:57;;;;;;;21.80;3.55;;;11.50;67.80;;;;;;4974802;28;20062;-72
2021/03/14 04:56:26;;;;;;;15.27;2.60;;;11.50;67.90;;;;;;4974722;28;20054;-73
2021/03/14 04:58:53;;;;;;;22.40;4.40;;;11.50;68.20;;;;;;4974579;28;20023;-72
2021/03/14 05:01:20;;;;;;;18.00;2.85;;;11.50;68.20;;;;;;4974756;28;20038;-73
2021/03/14 05:03:55;;;;;;;11.85;2.75;;;11.50;68.20;;;;;;4974531;28;20143;-73
2021/03/14 05:06:21;;;;;;;16.10;3.40;;;11.50;68.50;;;;;;4974488;28;20480;-72
2021/03/14 05:08:48;;;;;;;13.90;2.75;;;11.50;68.50;;;;;;4974391;28;20081;-72
2021/03/14 05:11:17;;;;;;;14.55;2.95;;;11.50;68.40;;;;;;4974248;28;20154;-72
2021/03/14 05:13:44;;;;;;;16.85;3.28;;;11.50;68.90;;;;;;4974680;28;20027;-72
2021/03/14 05:16:12;;;;;;;17.83;3.10;;;11.50;69.40;;;;;;4974627;28;20420;-72
2021/03/14 05:18:38;;;;;;;15.65;3.22;;;11.50;69.30;;;;;;4974225;28;20031;-72
2021/03/14 05:21:05;;;;;;;13.20;3.60;;;11.50;69.40;;;;;;4974121;28;20512;-73
2021/03/14 05:23:32;;;;;;;18.20;3.90;;;11.40;69.30;;;;;;4974278;28;20380;-73
2021/03/14 05:25:59;;;;;;;14.40;3.30;;;11.40;69.30;;;;;;4974520;28;20027;-72
2021/03/14 05:28:26;;;;;;;12.20;3.28;;;11.40;69.40;;;;;;4974080;28;20468;-72
2021/03/14 05:30:51;;;;;;;19.90;3.67;;;11.40;69.60;;;;;;4974206;28;20022;-72
2021/03/14 05:33:17;;;;;;;22.63;3.75;;;11.40;69.60;;;;;;4974332;28;20031;-72
2021/03/14 05:35:43;;;;;;;16.48;3.15;;;11.40;69.70;;;;;;4974321;28;20023;-72
2021/03/14 05:38:09;;;;;;;15.63;3.22;;;11.40;69.60;;;;;;4974001;28;20031;-73
2021/03/14 05:40:35;;;;;;;15.30;3.30;;;11.40;69.30;;;;;;4974231;28;20038;-73
2021/03/14 05:43:03;;;;;;;16.20;3.72;;;11.40;69.30;;;;;;4974186;28;20034;-72
2021/03/14 05:45:29;;;;;;;19.75;3.50;;;11.40;69.30;;;;;;4974497;28;20053;-73
2021/03/14 05:47:56;;;;;;;15.77;2.80;;;11.40;69.40;;;;;;4974136;28;20471;-72
2021/03/14 05:50:24;;;;;;;15.20;3.10;;;11.30;69.30;;;;;;4974176;28;20019;-72
2021/03/14 05:52:51;;;;;;;14.02;2.95;;;11.40;69.00;;;;;;4974097;28;20030;-72
2021/03/14 05:55:23;;;;;;;15.93;3.50;;;11.40;68.90;;;;;;4974232;28;20027;-72
2021/03/14 05:57:55;;;;;;;13.25;2.60;;;11.30;68.80;;;;;;4974257;28;20055;-72
2021/03/14 06:00:27;;;;;;;19.75;3.03;;;11.30;68.80;;;;;;4973930;28;20109;-72
2021/03/14 06:02:55;;;;;;;17.17;2.88;;;11.30;68.90;;;;;;4974059;28;20097;-72
2021/03/14 06:05:20;;;;;;;17.52;3.55;;;11.30;69.00;;;;;;4974049;28;20508;-72
2021/03/14 06:07:46;;;;;;;18.75;3.65;;;11.30;69.10;;;;;;4977634;28;20023;-72
2021/03/14 06:10:15;;;;;;;20.67;3.58;;;11.30;69.20;;;;;;4977683;28;20030;-72
2021/03/14 06:12:41;;;;;;;12.50;2.95;;;11.30;69.40;;;;;;4977876;28;20055;-72
2021/03/14 06:15:08;;;;;;;19.52;3.15;;;11.30;69.50;;;;;;4977756;28;20430;-73
2021/03/14 06:17:35;;;;;;;17.98;3.75;;;11.30;69.60;;;;;;4977744;28;20042;-73
2021/03/14 06:20:01;;;;;;;19.98;3.95;;;11.40;69.70;;;;;;4977657;28;20031;-72
2021/03/14 06:22:27;;;;;;;16.25;3.33;;;11.30;69.60;;;;;;4977694;28;20143;-72
2021/03/14 06:24:54;;;;;;;13.98;2.97;;;11.30;69.50;;;;;;4977306;28;20030;-72
2021/03/14 06:27:52;;;;;;;15.05;2.63;;;11.30;69.70;;;;;;4977328;28;20026;-72
2021/03/14 06:30:24;;;;;;;17.98;3.33;;;11.30;69.70;;;;;;4977473;28;20031;-72
2021/03/14 06:33:05;;;;;;;15.83;3.23;;;11.30;69.50;;;;;;4977373;28;20050;-71
2021/03/14 06:35:57;;;;;;;15.80;3.35;;;11.30;69.40;;;;;;4976219;28;20398;-73
2021/03/14 06:38:27;;;;;;;16.67;2.78;;;11.30;69.50;;;;;;4976083;28;20061;-72
2021/03/14 06:41:02;;;;;;;18.30;2.80;;;11.30;69.20;;;;;;4977176;28;20098;-72
2021/03/14 06:43:42;;;;;;;13.57;3.08;;;11.40;68.90;;;;;;4977093;28;20138;-72
2021/03/14 06:46:27;;;;;;;13.95;2.97;;;11.40;68.70;;;;;;4976898;28;20103;-72
2021/03/14 06:49:09;;;;;;;15.88;3.45;;;11.40;68.40;;;;;;4977002;28;20047;-72
2021/03/14 06:51:39;;;;;;;17.55;2.92;;;11.40;68.40;;;;;;4977057;28;20023;-72
2021/03/14 06:54:26;;;;;;;23.50;5.55;;;11.40;68.50;;;;;;4977043;28;20387;-72
2021/03/14 06:57:03;;;;;;;15.80;3.03;;;11.40;68.60;;;;;;4976927;28;20026;-73
2021/03/14 06:59:34;;;;;;;15.57;3.33;;;11.40;68.60;;;;;;4976707;28;20055;-72
2021/03/14 07:02:05;;;;;;;17.08;3.35;;;11.40;68.50;;;;;;4976988;28;20030;-78
2021/03/14 07:04:37;;;;;;;12.75;2.95;;;11.40;68.50;;;;;;4976299;28;20022;-76
2021/03/14 07:07:04;;;;;;;18.17;3.42;;;11.40;68.40;;;;;;4974015;28;20458;-77
2021/03/14 07:09:31;;;;;;;15.27;2.88;;;11.40;68.40;;;;;;4974403;28;20034;-75
2021/03/14 07:11:57;;;;;;;15.55;3.22;;;11.40;68.50;;;;;;4973977;28;20041;-77
2021/03/14 07:14:25;;;;;;;15.27;2.78;;;11.40;68.50;;;;;;4976058;28;20027;-77
2021/03/14 07:16:53;;;;;;;16.08;3.10;;;11.40;68.40;;;;;;4976494;28;20034;-75
2021/03/14 07:19:31;;;;;;;18.13;2.88;;;11.40;68.60;;;;;;4974842;28;20034;-76
2021/03/14 07:22:00;;;;;;;19.52;4.15;;;11.40;68.70;;;;;;4975944;28;20085;-78
2021/03/14 07:24:31;;;;;;;19.13;2.63;;;11.40;68.40;;;;;;4976217;28;20031;-74
2021/03/14 07:26:57;;;;;;;19.35;3.00;;;11.50;68.40;;;;;;4975015;28;20387;-75
2021/03/14 07:29:25;;;;;;;14.40;2.47;;;11.50;68.40;;;;;;4975989;28;20023;-78
2021/03/14 07:31:51;;;;;;;13.95;2.83;;;11.50;68.50;;;;;;4976197;28;20395;-77
2021/03/14 07:34:17;;;;;;;13.38;2.50;;;11.50;68.70;;;;;;4976142;28;20080;-76
2021/03/14 07:36:45;;;;;;;17.80;3.15;;;11.50;68.70;;;;;;4975591;28;20514;-76
2021/03/14 07:39:11;;;;;;;11.70;2.58;;;11.50;68.60;;;;;;4973952;28;20027;-77
2021/03/14 07:41:37;;;;;;;16.58;3.08;;;11.60;68.70;;;;;;4976103;28;20138;-76
2021/03/14 07:44:05;;;;;;;11.25;2.80;;;11.60;68.50;;;;;;4975650;28;20050;-76
2021/03/14 07:46:31;;;;;;;17.45;2.83;;;11.60;68.40;;;;;;4989152;28;20072;-76
2021/03/14 07:49:00;;;;;;;12.57;2.25;;;11.60;67.80;;;;;;4994732;28;20387;-77
2021/03/14 07:51:26;;;;;;;13.55;2.60;;;11.70;67.60;;;;;;4993531;28;20117;-75
2021/03/14 07:53:53;;;;;;;12.23;2.35;;;11.70;67.50;;;;;;4994897;28;20477;-74
2021/03/14 07:56:19;;;;;;;15.38;3.08;;;11.70;67.30;;;;;;4993209;28;20125;-76
2021/03/14 07:58:55;;;;;;;10.65;2.65;;;11.80;67.40;;;;;;4991586;28;20109;-75
2021/03/14 08:01:34;;;;;;;13.27;3.17;;;11.80;67.60;;;;;;4993377;28;20470;-77
2021/03/14 08:04:01;;;;;;;13.38;2.92;;;11.70;67.80;;;;;;4993114;28;20026;-77
2021/03/14 08:06:45;;;;;;;12.15;3.10;;;11.70;68.00;;;;;;4993278;28;20467;-77
2021/03/14 08:09:11;;;;;;;16.33;3.28;;;11.80;68.10;;;;;;4994129;28;20097;-77
2021/03/14 08:11:37;;;;;;;16.40;3.33;;;11.80;68.30;;;;;;4993417;28;20027;-77
2021/03/14 08:14:03;;;;;;;12.77;3.28;;;11.80;68.40;;;;;;4993464;28;20081;-71
2021/03/14 08:16:29;;;;;;;12.63;2.95;;;11.90;68.80;;;;;;4993820;28;20030;-71
2021/03/14 08:18:55;;;;;;;12.25;2.65;;;11.90;68.50;;;;;;4993053;28;20030;-71
2021/03/14 08:21:20;;;;;;;11.45;2.80;;;11.90;68.90;;;;;;4994070;28;20038;-72
2021/03/14 08:23:48;;;;;;;18.65;3.97;;;12.00;68.90;;;;;;4993174;28;20034;-71
2021/03/14 08:26:23;;;;;;;10.48;3.13;;;12.00;69.20;;;;;;4994330;28;20031;-73
2021/03/14 08:28:56;;;;;;;11.00;2.85;;;12.10;69.00;;;;;;4991334;28;20033;-71
2021/03/14 08:31:44;;;;;;;15.50;2.67;;;12.10;68.70;;;;;;4988298;28;20081;-72
2021/03/14 08:34:12;;;;;;;12.55;2.65;;;12.20;68.70;;;;;;4992902;28;20030;-72
2021/03/14 08:36:40;;;;;;;9.30;2.50;;;12.20;68.40;;;;;;4993443;28;20101;-71
2021/03/14 08:39:19;;;;;;;9.75;2.25;;;12.20;68.30;;;;;;4993579;28;20023;-71
2021/03/14 08:42:00;;;;;;;13.13;2.50;;;12.20;68.50;;;;;;4993309;28;20505;-71
2021/03/14 08:44:37;;;;;;;11.55;2.40;;;12.20;68.70;;;;;;4993554;28;20030;-72
2021/03/14 08:47:13;;;;;;;12.73;2.53;;;12.20;69.00;;;;;;4998479;28;20088;-71
2021/03/14 08:49:52;;;;;;;11.52;2.97;;;12.10;69.30;;;;;;4993926;28;20529;-74
2021/03/14 08:52:18;;;;;;;15.10;3.47;;;12.20;70.00;;;;;;4993890;28;20053;-71
2021/03/14 08:54:54;;;;;;;13.88;3.53;;;12.20;70.00;;;;;;4993898;28;20065;-71
2021/03/14 08:57:21;;;;;;;14.60;3.33;;;12.20;70.80;;;;;;4993619;28;20458;-73
2021/03/14 08:59:49;;;;;;;7.63;2.40;;;12.20;71.50;;;;;;4993825;28;20034;-72
2021/03/14 09:02:25;;;;;;;14.73;3.03;;;12.20;71.60;;;;;;4993649;28;20475;-72
2021/03/14 09:04:51;;;;;;;14.05;2.78;;;12.20;71.70;;;;;;4989315;28;20038;-71
2021/03/14 09:07:17;;;;;;;12.05;2.67;;;12.30;71.50;;;;;;4974549;28;20043;-71
2021/03/14 09:09:43;;;;;;;9.93;2.17;;;12.30;71.30;;;;;;4974411;28;20033;-71
2021/03/14 09:12:19;;;;;;;14.32;2.20;;;12.30;71.40;;;;;;4974546;28;20038;-71
2021/03/14 09:14:48;;;;;;;11.15;2.60;;;12.40;71.40;;;;;;4974022;28;20031;-71
2021/03/14 09:17:19;;;;;;;9.00;2.50;;;12.40;71.20;;;;;;4974159;28;20023;-72
2021/03/14 09:19:55;;;;;;;7.40;2.05;;;12.40;71.20;;;;;;4973995;28;20037;-71
2021/03/14 09:22:23;;;;;;;9.75;2.38;;;12.50;71.40;;;;;;4973168;28;20030;-71
2021/03/14 09:24:59;;;;;;;11.98;2.72;;;12.50;71.20;;;;;;4973266;28;20023;-71
2021/03/14 09:27:27;;;;;;;10.82;2.65;;;12.50;70.70;;;;;;4974262;28;20018;-71
2021/03/14 09:29:58;;;;;;;18.95;3.40;;;12.50;70.80;;;;;;4974001;28;20061;-71
2021/03/14 09:32:31;;;;;;;14.23;4.03;;;12.50;71.10;;;;;;4973932;28;20440;-71
2021/03/14 09:35:28;;;;;;;9.30;2.35;;;12.50;71.10;;;;;;4971464;28;20022;-71
2021/03/14 09:38:05;;;;;;;16.17;2.80;;;12.60;71.50;;;;;;4971330;28;20035;-71
2021/03/14 09:40:45;;;;;;;17.05;3.83;;;12.50;72.00;;;;;;4974006;28;20035;-71
2021/03/14 09:43:15;;;;;;;9.38;2.35;;;12.50;72.80;;;;;;4978030;28;20158;-71
2021/03/14 09:45:49;;;;;;;7.97;2.30;;;12.50;73.70;;;;;;4977751;28;20037;-71
2021/03/14 09:48:18;;;;;;;8.05;2.50;;;12.50;74.70;;;;;;4977757;28;20079;-71
2021/03/14 09:50:43;;;;;;;12.80;2.58;;;12.50;75.10;;;;;;4977656;28;20117;-71
2021/03/14 09:53:10;;;;;;;9.93;2.28;;;12.50;75.30;;;;;;4977997;28;20110;-71
2021/03/14 09:55:53;;;;;;;10.63;2.70;;;12.50;75.40;;;;;;4978106;28;20032;-71
2021/03/14 09:58:21;;;;;;;11.07;2.45;;;12.60;75.70;;;;;;4976492;28;20033;-71
2021/03/14 10:00:48;;;;;;;11.98;2.75;;;12.70;75.80;;;;;;4974851;28;20121;-71
2021/03/14 10:03:16;;;;;;;14.73;3.17;;;12.80;75.60;;;;;;4974967;28;20502;-71
2021/03/14 10:05:43;;;;;;;8.48;2.80;;;12.90;76.20;;;;;;4977127;28;20590;-71
2021/03/14 10:08:10;;;;;;;9.80;2.13;;;13.00;76.20;;;;;;4977568;28;20050;-71
2021/03/14 10:10:37;;;;;;;15.63;3.08;;;13.00;75.80;;;;;;4977542;28;20041;-73
2021/03/14 10:13:07;;;;;;;12.15;2.67;;;13.10;75.40;;;;;;4977055;28;20086;-71
2021/03/14 10:15:34;;;;;;;18.45;3.25;;;13.20;75.30;;;;;;4977712;28;20057;-71
2021/03/14 10:18:01;;;;;;;9.70;2.55;;;13.40;74.30;;;;;;4977764;28;20031;-71
2021/03/14 10:20:27;;;;;;;16.77;3.42;;;13.60;72.60;;;;;;4976954;28;20381;-71
2021/03/14 10:23:00;;;;;;;14.30;3.05;;;13.70;72.40;;;;;;4977413;28;20029;-71
2021/03/14 10:25:31;;;;;;;7.25;1.73;;;13.90;70.70;;;;;;4977263;28;20045;-71
2021/03/14 10:28:08;;;;;;;11.50;2.10;;;14.00;70.20;;;;;;4976344;28;20635;-72
2021/03/14 10:30:34;;;;;;;11.10;2.25;;;14.20;68.90;;;;;;4977079;28;20026;-71
2021/03/14 10:33:00;;;;;;;15.65;2.22;;;14.30;66.60;;;;;;4977340;28;20027;-71
2021/03/14 10:35:26;;;;;;;10.90;2.03;;;14.30;66.60;;;;;;4976776;28;20031;-71
2021/03/14 10:37:52;;;;;;;11.00;2.30;;;14.30;63.10;;;;;;4977460;28;20101;-71
2021/03/14 10:40:24;;;;;;;11.30;2.70;;;14.20;63.80;;;;;;4977127;28;20495;-71
2021/03/14 10:42:50;;;;;;;10.60;2.63;;;14.10;62.80;;;;;;4977273;28;20093;-72
2021/03/14 10:45:22;;;;;;;13.50;2.63;;;14.00;63.70;;;;;;4977000;28;20063;-72
2021/03/14 10:48:03;;;;;;;11.68;2.10;;;13.90;63.70;;;;;;4977016;28;20050;-71
2021/03/14 10:50:31;;;;;;;8.80;1.90;;;13.90;63.50;;;;;;4976939;28;20472;-72
2021/03/14 10:53:16;;;;;;;13.60;1.98;;;13.70;62.70;;;;;;4976638;28;20050;-74
2021/03/14 10:55:44;;;;;;;11.77;2.00;;;13.60;62.80;;;;;;4977054;28;20070;-71
2021/03/14 10:58:12;;;;;;;11.68;2.22;;;13.60;63.70;;;;;;4976725;28;20106;-72
2021/03/14 11:00:44;;;;;;;9.65;1.83;;;13.50;63.80;;;;;;4976902;28;20035;-72
2021/03/14 11:03:29;;;;;;;11.70;1.97;;;13.40;64.40;;;;;;4976931;28;20022;-73
2021/03/14 11:06:14;;;;;;;13.18;2.28;;;13.40;64.50;;;;;;4976903;28;20266;-73
2021/03/14 11:08:53;;;;;;;10.20;2.80;;;13.30;64.90;;;;;;4991775;28;20416;-71
2021/03/14 11:11:23;;;;;;;11.25;2.00;;;13.30;66.00;;;;;;4976591;28;20070;-71
2021/03/14 11:13:49;;;;;;;10.48;2.13;;;13.30;66.00;;;;;;4976515;28;20062;-71
2021/03/14 11:16:15;;;;;;;11.20;2.28;;;13.20;66.40;;;;;;4976573;28;20038;-71
2021/03/14 11:18:40;;;;;;;11.02;2.10;;;13.30;65.50;;;;;;4976642;28;20027;-71
2021/03/14 11:21:07;;;;;;;11.25;2.00;;;13.20;65.80;;;;;;4976880;28;20109;-71
2021/03/14 11:23:33;;;;;;;16.52;2.60;;;13.30;65.30;;;;;;4976713;28;20157;-71
2021/03/14 11:25:59;;;;;;;10.80;2.17;;;13.20;65.60;;;;;;4976461;28;20479;-72
2021/03/14 11:28:25;;;;;;;14.50;2.58;;;13.20;65.80;;;;;;4976285;28;20019;-71
2021/03/14 11:30:51;;;;;;;11.48;2.17;;;13.20;66.20;;;;;;4976190;28;20030;-71
2021/03/14 11:33:17;;;;;;;8.80;1.98;;;13.20;65.90;;;;;;4976360;28;20523;-71
2021/03/14 11:35:43;;;;;;;10.43;2.10;;;13.20;66.20;;;;;;4976392;28;20031;-72
2021/03/14 11:38:09;;;;;;;10.85;2.10;;;13.10;66.30;;;;;;4976118;28;20018;-71
2021/03/14 11:40:36;;;;;;;14.45;1.80;;;13.20;66.30;;;;;;4976101;28;20038;-71
2021/03/14 11:43:02;;;;;;;5.47;1.63;;;13.10;66.50;;;;;;4976190;28;20376;-71
2021/03/14 11:45:27;;;;;;;9.43;2.40;;;13.00;66.70;;;;;;4976244;28;20081;-72
2021/03/14 11:47:53;;;;;;;10.32;2.20;;;13.00;67.50;;;;;;4975857;28;20087;-71
2021/03/14 11:50:19;;;;;;;5.47;0.65;;;12.90;65.00;;;;;;4975753;28;20034;-72
2021/03/14 11:52:49;;;;;;;2.75;0.70;;;12.80;62.80;;;;;;4976041;28;20027;-71
2021/03/14 11:55:15;;;;;;;6.07;0.57;;;12.60;61.80;;;;;;4975689;28;20475;-71
2021/03/14 11:57:41;;;;;;;2.28;0.50;;;12.60;59.60;;;;;;4974721;28;20470;-71
2021/03/14 12:00:07;;;;;;;0.75;0.55;;;12.40;58.60;;;;;;4972729;28;20037;-72
2021/03/14 12:02:33;;;;;;;0.75;0.50;;;12.30;58.20;;;;;;4972537;28;20035;-72
2021/03/14 12:04:59;;;;;;;1.20;0.40;;;12.10;57.80;;;;;;4974327;28;20118;-72
2021/03/14 12:07:25;;;;;;;2.22;1.50;;;11.90;58.80;;;;;;4975340;28;20545;-72
2021/03/14 12:09:52;;;;;;;3.40;0.50;;;11.70;59.80;;;;;;4975407;28;20015;-70
2021/03/14 12:12:18;;;;;;;1.33;0.50;;;11.50;61.40;;;;;;4975377;28;20037;-70
2021/03/14 12:14:44;;;;;;;3.33;1.00;;;11.30;62.80;;;;;;4972708;28;20026;-75
2021/03/14 12:17:10;;;;;;;3.97;0.77;;;11.10;64.30;;;;;;4972714;28;20153;-71
2021/03/14 12:19:35;;;;;;;6.95;1.38;;;10.80;64.20;;;;;;4971900;28;20027;-72
2021/03/14 12:22:02;;;;;;;4.78;1.48;;;10.60;64.10;;;;;;4972784;28;20039;-71
2021/03/14 12:24:27;;;;;;;2.83;0.80;;;10.30;63.90;;;;;;4972757;28;20421;-72
2021/03/14 12:26:53;;;;;;;4.40;0.80;;;10.00;65.10;;;;;;4975260;28;20077;-72
2021/03/14 12:29:19;;;;;;;2.28;0.60;;;9.80;66.20;;;;;;4975272;28;20030;-72
2021/03/14 12:31:44;;;;;;;1.27;0.50;;;9.60;67.20;;;;;;4975185;28;20034;-72
2021/03/14 12:34:10;;;;;;;1.85;0.60;;;9.40;67.90;;;;;;4974771;28;20484;-72
2021/03/14 12:36:36;;;;;;;0.90;0.57;;;9.30;69.20;;;;;;4974802;28;20022;-72
2021/03/14 12:39:02;;;;;;;0.70;0.50;;;9.20;70.30;;;;;;4974737;28;20031;-72
2021/03/14 12:41:28;;;;;;;1.87;0.67;;;9.10;71.30;;;;;;4988454;28;20403;-71
2021/03/14 12:43:53;;;;;;;8.40;6.43;;;9.10;71.90;;;;;;4993219;28;20032;-72
2021/03/14 12:46:19;;;;;;;2.10;1.80;;;9.00;72.20;;;;;;4992631;28;20050;-71